createdAt,value
2023-04-08T00:00:40.728Z,101637.47
2023-04-08T00:03:08.601Z,101637.13
2023-04-08T00:05:37.558Z,101637.88
2023-04-08T00:08:05.264Z,101634.06
2023-04-08T00:10:32.975Z,101646.03
2023-04-08T00:13:01.604Z,101649.72
2023-04-08T00:15:29.454Z,101636.31
2023-04-08T00:17:57.088Z,101644.88
2023-04-08T00:20:25.455Z,101642.44
2023-04-08T00:22:54.448Z,101649.84
2023-04-08T00:25:24.715Z,101645.44
2023-04-08T00:27:53.312Z,101648.47
2023-04-08T00:30:21.422Z,101646.78
2023-04-08T00:32:49.162Z,101646.16
2023-04-08T00:35:17.819Z,101656.28
2023-04-08T00:37:45.908Z,101655.13
2023-04-08T00:40:14.986Z,101651.22
2023-04-08T00:42:42.967Z,101654.53
2023-04-08T00:45:11.747Z,101656.34
2023-04-08T00:47:39.515Z,101654.59
2023-04-08T00:50:10.442Z,101653.94
2023-04-08T00:52:38.019Z,101646.56
2023-04-08T00:55:06.837Z,101646.94
2023-04-08T00:57:36.395Z,101645.41
2023-04-08T01:00:06.474Z,101651.41
2023-04-08T01:02:40.390Z,101644.66
2023-04-08T01:05:12.410Z,101646.50
2023-04-08T01:07:46.728Z,101654.06
2023-04-08T01:10:18.035Z,101649.16
2023-04-08T01:12:52.737Z,101641.53
2023-04-08T01:15:21.247Z,101642.75
2023-04-08T01:17:51.416Z,101645.06
2023-04-08T01:20:20.468Z,101645.22
2023-04-08T01:23:03.780Z,101652.41
2023-04-08T01:25:34.782Z,101653.34
2023-04-08T01:28:07.174Z,101644.63
2023-04-08T01:30:35.754Z,101641.53
2023-04-08T01:33:04.943Z,101647.84
2023-04-08T01:35:34.045Z,101649.72
2023-04-08T01:38:03.861Z,101655.66
2023-04-08T01:40:32.582Z,101654.06
2023-04-08T01:43:01.714Z,101656.25
2023-04-08T01:45:31.686Z,101656.16
2023-04-08T01:48:01.064Z,101644.56
2023-04-08T01:50:29.839Z,101649.94
2023-04-08T01:53:00.122Z,101641.41
2023-04-08T01:55:29.617Z,101640.94
2023-04-08T01:58:00.753Z,101629.97
2023-04-08T02:00:32.909Z,101627.13
2023-04-08T02:03:02.145Z,101626.63
2023-04-08T02:05:30.044Z,101614.28
2023-04-08T02:07:57.596Z,101623.91
2023-04-08T02:10:25.572Z,101627.59
2023-04-08T02:12:53.343Z,101629.91
2023-04-08T02:15:21.859Z,101635.63
2023-04-08T02:17:53.051Z,101634.47
2023-04-08T02:20:24.717Z,101637.19
2023-04-08T02:22:58.847Z,101634.16
2023-04-08T02:25:28.481Z,101637.06
2023-04-08T02:27:57.380Z,101638.38
2023-04-08T02:30:27.790Z,101639.50
2023-04-08T02:32:59.213Z,101633.94
2023-04-08T02:35:29.250Z,101649.50
2023-04-08T02:37:56.916Z,101640.94
2023-04-08T02:40:26.132Z,101629.00
2023-04-08T02:42:54.329Z,101638.28
2023-04-08T02:45:22.326Z,101642.13
2023-04-08T02:47:51.812Z,101641.47
2023-04-08T02:50:20.822Z,101642.91
2023-04-08T02:52:48.429Z,101641.69
2023-04-08T02:55:16.353Z,101651.66
2023-04-08T02:57:44.251Z,101642.78
2023-04-08T03:00:13.236Z,101651.59
2023-04-08T03:02:41.229Z,101655.81
2023-04-08T03:05:10.005Z,101662.66
2023-04-08T03:07:39.169Z,101662.97
2023-04-08T03:10:08.329Z,101654.28
2023-04-08T03:12:36.240Z,101659.03
2023-04-08T03:15:04.172Z,101656.16
2023-04-08T03:17:33.656Z,101658.50
2023-04-08T03:20:01.684Z,101665.19
2023-04-08T03:22:29.386Z,101655.44
2023-04-08T03:24:58.448Z,101658.56
2023-04-08T03:27:26.346Z,101660.31
2023-04-08T03:29:53.962Z,101672.13
2023-04-08T03:32:21.743Z,101671.09
2023-04-08T03:34:52.148Z,101663.41
2023-04-08T03:37:20.135Z,101674.56
2023-04-08T03:39:47.900Z,101671.81
2023-04-08T03:42:16.824Z,101668.56
2023-04-08T03:44:44.464Z,101673.81
2023-04-08T03:47:13.653Z,101666.03
2023-04-08T03:49:41.256Z,101677.53
2023-04-08T03:52:09.056Z,101675.22
2023-04-08T03:54:36.672Z,101676.28
2023-04-08T03:57:04.292Z,101671.72
2023-04-08T03:59:33.913Z,101677.97
2023-04-08T04:02:01.816Z,101676.06
2023-04-08T04:04:29.502Z,101675.91
2023-04-08T04:06:57.172Z,101676.38
2023-04-08T04:09:24.786Z,101668.13
2023-04-08T04:11:52.395Z,101678.59
2023-04-08T04:14:20.110Z,101689.75
2023-04-08T04:16:49.057Z,101678.97
2023-04-08T04:19:17.719Z,101681.84
2023-04-08T04:21:45.528Z,101684.53
2023-04-08T04:24:14.372Z,101689.91
2023-04-08T04:26:42.304Z,101691.63
2023-04-08T04:29:10.072Z,101689.38
2023-04-08T04:31:38.091Z,101691.28
2023-04-08T04:34:07.043Z,101691.19
2023-04-08T04:36:34.725Z,101694.59
2023-04-08T04:39:02.522Z,101697.72
2023-04-08T04:41:30.309Z,101703.66
2023-04-08T04:43:58.002Z,101705.13
2023-04-08T04:46:25.668Z,101707.28
2023-04-08T04:48:53.264Z,101721.72
2023-04-08T04:51:22.211Z,101710.94
2023-04-08T04:53:50.482Z,101716.16
2023-04-08T04:56:18.087Z,101719.09
2023-04-08T04:58:45.792Z,101720.00
2023-04-08T05:01:13.535Z,101719.44
2023-04-08T05:03:41.315Z,101732.59
2023-04-08T05:06:08.919Z,101718.59
2023-04-08T05:08:37.942Z,101724.25
2023-04-08T05:11:06.175Z,101730.53
2023-04-08T05:13:35.856Z,101730.91
2023-04-08T05:16:03.599Z,101737.53
2023-04-08T05:18:31.380Z,101735.16
2023-04-08T05:20:59.694Z,101737.56
2023-04-08T05:23:27.346Z,101739.91
2023-04-08T05:25:56.503Z,101744.81
2023-04-08T05:28:24.228Z,101747.75
2023-04-08T05:30:54.759Z,101741.72
2023-04-08T05:33:22.533Z,101743.75
2023-04-08T05:35:50.413Z,101741.56
2023-04-08T05:38:18.070Z,101739.91
2023-04-08T05:40:45.724Z,101740.44
2023-04-08T05:43:14.678Z,101740.59
2023-04-08T05:45:42.269Z,101749.66
2023-04-08T05:48:09.948Z,101749.41
2023-04-08T05:50:37.627Z,101747.44
2023-04-08T05:53:05.235Z,101751.03
2023-04-08T05:55:32.851Z,101754.19
2023-04-08T05:58:00.574Z,101760.72
2023-04-08T06:00:29.528Z,101762.72
2023-04-08T06:02:57.733Z,101766.97
2023-04-08T06:05:25.957Z,101759.91
2023-04-08T06:07:53.573Z,101768.41
2023-04-08T06:10:21.240Z,101766.91
2023-04-08T06:12:48.825Z,101770.28
2023-04-08T06:15:16.671Z,101776.53
2023-04-08T06:17:45.800Z,101770.28
2023-04-08T06:20:13.462Z,101781.56
2023-04-08T06:22:41.157Z,101781.44
2023-04-08T06:25:09.537Z,101784.38
2023-04-08T06:27:37.425Z,101788.22
2023-04-08T06:30:05.550Z,101792.63
2023-04-08T06:32:33.412Z,101794.03
2023-04-08T06:35:02.462Z,101793.06
2023-04-08T06:37:30.408Z,101796.47
2023-04-08T06:39:58.029Z,101792.47
2023-04-08T06:42:25.778Z,101797.84
2023-04-08T06:44:54.528Z,101797.00
2023-04-08T06:47:22.194Z,101799.81
2023-04-08T06:49:49.836Z,101800.91
2023-04-08T06:52:18.968Z,101806.59
2023-04-08T06:54:46.939Z,101804.59
2023-04-08T06:57:15.480Z,101812.72
2023-04-08T06:59:43.133Z,101808.31
2023-04-08T07:02:11.224Z,101809.22
2023-04-08T07:04:39.109Z,101816.88
2023-04-08T07:07:07.260Z,101817.25
2023-04-08T07:09:36.955Z,101821.38
2023-04-08T07:12:05.389Z,101811.16
2023-04-08T07:14:33.139Z,101811.16
2023-04-08T07:17:00.866Z,101815.41
2023-04-08T07:19:28.599Z,101818.50
2023-04-08T07:21:56.615Z,101821.06
2023-04-08T07:24:24.424Z,101824.00
2023-04-08T07:26:55.307Z,101823.25
2023-04-08T07:29:23.928Z,101827.19
2023-04-08T07:31:51.758Z,101825.47
2023-04-08T07:34:19.424Z,101819.56
2023-04-08T07:36:47.083Z,101826.63
2023-04-08T07:39:14.720Z,101823.03
2023-04-08T07:41:42.523Z,101828.22
2023-04-08T07:44:11.483Z,101821.94
2023-04-08T07:46:39.494Z,101831.16
2023-04-08T07:49:07.372Z,101829.78
2023-04-08T07:51:35.096Z,101831.53
2023-04-08T07:54:03.131Z,101839.66
2023-04-08T07:56:30.724Z,101836.66
2023-04-08T07:58:58.397Z,101839.09
2023-04-08T08:01:31.174Z,101839.44
2023-04-08T08:03:59.122Z,101838.09
2023-04-08T08:06:27.526Z,101845.34
2023-04-08T08:08:55.233Z,101843.81
2023-04-08T08:11:23.449Z,101857.13
2023-04-08T08:13:52.677Z,101861.72
2023-04-08T08:16:20.774Z,101857.47
2023-04-08T08:18:50.279Z,101861.13
2023-04-08T08:21:18.252Z,101862.53
2023-04-08T08:23:46.286Z,101859.53
2023-04-08T08:26:13.914Z,101860.28
2023-04-08T08:28:41.593Z,101862.03
2023-04-08T08:31:09.291Z,101873.66
2023-04-08T08:33:36.975Z,101868.09
2023-04-08T08:36:07.334Z,101877.91
2023-04-08T08:38:35.266Z,101874.31
2023-04-08T08:41:04.021Z,101883.84
2023-04-08T08:43:33.413Z,101879.13
2023-04-08T08:46:01.446Z,101878.22
2023-04-08T08:48:31.224Z,101877.06
2023-04-08T08:50:58.962Z,101878.69
2023-04-08T08:53:35.126Z,101885.72
2023-04-08T08:58:34.710Z,101888.59
2023-04-08T09:01:02.544Z,101889.56
2023-04-08T09:03:30.651Z,101896.59
2023-04-08T09:06:00.234Z,101890.31
2023-04-08T09:08:31.269Z,101898.56
2023-04-08T09:11:12.472Z,101899.81
2023-04-08T09:13:40.407Z,101901.97
2023-04-08T09:16:10.209Z,101899.13
2023-04-08T09:18:39.065Z,101899.94
2023-04-08T09:21:08.366Z,101898.16
2023-04-08T09:23:46.869Z,101915.53
2023-04-08T09:26:16.226Z,101907.81
2023-04-08T09:28:45.729Z,101909.38
2023-04-08T09:31:24.956Z,101918.06
2023-04-08T09:33:55.321Z,101914.22
2023-04-08T09:36:23.259Z,101908.50
2023-04-08T09:38:52.622Z,101917.06
2023-04-08T09:41:24.317Z,101923.22
2023-04-08T09:43:54.273Z,101926.34
2023-04-08T09:46:30.414Z,101929.38
2023-04-08T09:49:06.302Z,101916.59
2023-04-08T09:51:39.269Z,101917.34
2023-04-08T09:54:15.696Z,101923.91
2023-04-08T09:56:48.852Z,101926.75
2023-04-08T09:59:21.529Z,101924.44
2023-04-08T10:01:53.938Z,101925.00
2023-04-08T10:04:24.322Z,101919.47
2023-04-08T10:06:55.562Z,101927.56
2023-04-08T10:09:24.732Z,101927.50
2023-04-08T10:11:54.927Z,101929.19
2023-04-08T10:14:22.704Z,101933.56
2023-04-08T10:16:50.475Z,101940.13
2023-04-08T10:19:42.970Z,101927.88
2023-04-08T10:22:49.116Z,101926.94
2023-04-08T10:25:32.211Z,101928.25
2023-04-08T10:28:00.560Z,101929.94
2023-04-08T10:30:40.513Z,101939.44
2023-04-08T10:33:12.167Z,101938.09
2023-04-08T10:35:46.100Z,101934.56
2023-04-08T10:38:14.391Z,101927.88
2023-04-08T10:40:44.667Z,101933.41
2023-04-08T10:43:13.538Z,101930.88
2023-04-08T10:45:42.613Z,101933.56
2023-04-08T10:48:14.754Z,101929.00
2023-04-08T10:50:42.946Z,101928.53
2023-04-08T10:53:11.713Z,101931.09
2023-04-08T10:55:40.008Z,101933.63
2023-04-08T10:58:11.140Z,101927.91
2023-04-08T11:00:40.253Z,101928.47
2023-04-08T11:03:09.868Z,101935.25
2023-04-08T11:05:39.159Z,101933.59
2023-04-08T11:08:07.234Z,101934.75
2023-04-08T11:10:38.824Z,101944.13
2023-04-08T11:13:10.689Z,101939.56
2023-04-08T11:15:38.406Z,101934.75
2023-04-08T11:18:07.123Z,101943.66
2023-04-08T11:20:37.161Z,101947.38
2023-04-08T11:23:04.854Z,101941.25
2023-04-08T11:25:32.845Z,101944.81
2023-04-08T11:28:01.206Z,101944.19
2023-04-08T11:30:30.979Z,101946.28
2023-04-08T11:32:58.832Z,101948.50
2023-04-08T11:35:30.229Z,101944.19
2023-04-08T11:37:58.964Z,101943.88
2023-04-08T11:40:27.386Z,101943.19
2023-04-08T11:42:55.283Z,101938.09
2023-04-08T11:45:23.268Z,101939.00
2023-04-08T11:47:53.047Z,101953.72
2023-04-08T11:50:24.788Z,101949.81
2023-04-08T11:52:53.821Z,101965.34
2023-04-08T11:55:26.886Z,101957.06
2023-04-08T11:57:56.321Z,101965.94
2023-04-08T12:00:24.943Z,101970.41
2023-04-08T12:02:53.986Z,101955.31
2023-04-08T12:05:22.019Z,101962.94
2023-04-08T12:07:49.776Z,101960.72
2023-04-08T12:10:17.793Z,101958.00
2023-04-08T12:12:45.480Z,101959.28
2023-04-08T12:15:13.066Z,101960.72
2023-04-08T12:17:40.816Z,101962.59
2023-04-08T12:20:11.783Z,101965.41
2023-04-08T12:22:39.917Z,101964.75
2023-04-08T12:25:08.197Z,101959.06
2023-04-08T12:27:36.047Z,101962.22
2023-04-08T12:30:04.397Z,101965.84
2023-04-08T12:32:32.177Z,101972.56
2023-04-08T12:34:59.795Z,101964.78
2023-04-08T12:37:28.887Z,101960.16
2023-04-08T12:39:56.460Z,101963.19
2023-04-08T12:42:24.337Z,101970.72
2023-04-08T12:44:52.822Z,101962.09
2023-04-08T12:47:20.891Z,101959.53
2023-04-08T12:49:50.095Z,101959.38
2023-04-08T12:52:18.717Z,101961.47
2023-04-08T12:54:47.751Z,101965.88
2023-04-08T12:57:15.429Z,101956.59
2023-04-08T12:59:42.992Z,101947.22
2023-04-08T13:02:10.943Z,101954.59
2023-04-08T13:04:38.721Z,101952.28
2023-04-08T13:07:07.499Z,101943.88
2023-04-08T13:09:35.088Z,101948.28
2023-04-08T13:12:04.886Z,101949.97
2023-04-08T13:14:32.796Z,101951.50
2023-04-08T13:17:00.458Z,101957.75
2023-04-08T13:19:28.295Z,101949.31
2023-04-08T13:21:55.940Z,101951.69
2023-04-08T13:24:24.015Z,101955.38
2023-04-08T13:26:51.700Z,101945.78
2023-04-08T13:29:21.071Z,101945.78
2023-04-08T13:31:48.836Z,101947.72
2023-04-08T13:34:16.640Z,101942.13
2023-04-08T13:36:44.499Z,101947.25
2023-04-08T13:39:12.240Z,101942.72
2023-04-08T13:41:40.001Z,101949.44
2023-04-08T13:44:07.960Z,101957.22
2023-04-08T13:46:37.120Z,101945.63
2023-04-08T13:49:04.936Z,101942.22
2023-04-08T13:51:32.534Z,101944.84
2023-04-08T13:54:00.245Z,101939.63
2023-04-08T13:56:27.927Z,101939.06
2023-04-08T13:58:57.505Z,101945.06
2023-04-08T14:01:25.747Z,101936.38
2023-04-08T14:03:54.891Z,101937.03
2023-04-08T14:06:22.651Z,101938.00
2023-04-08T14:08:50.876Z,101933.81
2023-04-08T14:11:18.789Z,101942.81
2023-04-08T14:13:46.364Z,101943.69
2023-04-08T14:16:14.361Z,101947.81
2023-04-08T14:18:42.185Z,101945.63
2023-04-08T14:21:12.734Z,101942.84
2023-04-08T14:23:40.600Z,101948.25
2023-04-08T14:26:08.539Z,101946.25
2023-04-08T14:28:36.516Z,101947.41
2023-04-08T14:31:06.258Z,101948.41
2023-04-08T14:33:34.574Z,101954.31
2023-04-08T14:36:02.374Z,101952.06
2023-04-08T14:38:31.389Z,101955.31
2023-04-08T14:40:59.217Z,101948.22
2023-04-08T14:43:26.854Z,101948.56
2023-04-08T14:45:55.519Z,101944.53
2023-04-08T14:48:25.724Z,101944.88
2023-04-08T14:50:53.519Z,101949.59
2023-04-08T14:53:21.350Z,101953.34
2023-04-08T14:55:50.389Z,101954.53
2023-04-08T14:58:18.208Z,101953.34
2023-04-08T15:00:47.720Z,101958.25
2023-04-08T15:03:48.031Z,101955.56
2023-04-08T15:06:18.636Z,101953.53
2023-04-08T15:08:46.644Z,101959.59
2023-04-08T15:11:16.050Z,101958.59
2023-04-08T15:13:43.617Z,101957.91
2023-04-08T15:16:11.334Z,101962.47
2023-04-08T15:18:39.016Z,101954.94
2023-04-08T15:21:07.017Z,101957.81
2023-04-08T15:23:34.878Z,101962.22
2023-04-08T15:26:02.903Z,101968.41
2023-04-08T15:28:32.672Z,101965.88
2023-04-08T15:31:00.311Z,101967.53
2023-04-08T15:33:28.005Z,101967.25
2023-04-08T15:35:57.429Z,101965.75
2023-04-08T15:38:26.516Z,101967.13
2023-04-08T15:40:54.421Z,101973.69
2023-04-08T15:43:22.023Z,101975.19
2023-04-08T15:45:51.105Z,101972.94
2023-04-08T15:48:18.884Z,101976.03
2023-04-08T15:50:46.552Z,101981.13
2023-04-08T15:53:14.145Z,101984.22
2023-04-08T15:55:44.804Z,101974.63
2023-04-08T15:58:12.439Z,101978.84
2023-04-08T16:00:40.305Z,101976.81
2023-04-08T16:03:12.009Z,101977.53
2023-04-08T16:05:41.579Z,101977.84
2023-04-08T16:08:10.022Z,101989.09
2023-04-08T16:10:37.636Z,101979.66
2023-04-08T16:13:05.298Z,101990.88
2023-04-08T16:15:34.039Z,101984.78
2023-04-08T16:18:03.006Z,101986.91
2023-04-08T16:20:31.988Z,101983.25
2023-04-08T16:22:59.675Z,101985.84
2023-04-08T16:25:28.463Z,101994.38
2023-04-08T16:27:56.524Z,101988.84
2023-04-08T16:30:24.134Z,101992.88
2023-04-08T16:32:51.785Z,101996.09
2023-04-08T16:35:20.539Z,101991.81
2023-04-08T16:37:49.457Z,101989.53
2023-04-08T16:40:17.487Z,101994.78
2023-04-08T16:42:45.127Z,101995.44
2023-04-08T16:45:12.941Z,101997.16
2023-04-08T16:47:41.727Z,102007.84
2023-04-08T16:50:09.968Z,102011.31
2023-04-08T16:52:37.647Z,102014.25
2023-04-08T16:55:07.837Z,102016.84
2023-04-08T16:57:35.761Z,102014.53
2023-04-08T17:00:03.665Z,102012.00
2023-04-08T17:02:31.452Z,102007.75
2023-04-08T17:05:00.676Z,102008.78
2023-04-08T17:07:29.117Z,102016.34
2023-04-08T17:09:56.899Z,102025.34
2023-04-08T17:12:25.918Z,102023.00
2023-04-08T17:14:53.651Z,102023.97
2023-04-08T17:17:21.444Z,102026.50
2023-04-08T17:19:49.243Z,102020.72
2023-04-08T17:22:16.811Z,102028.09
2023-04-08T17:24:47.825Z,102026.81
2023-04-08T17:27:16.059Z,102038.47
2023-04-08T17:29:45.060Z,102033.84
2023-04-08T17:32:13.364Z,102029.59
2023-04-08T17:34:41.407Z,102030.59
2023-04-08T17:37:10.105Z,102034.78
2023-04-08T17:39:40.819Z,102031.44
2023-04-08T17:42:08.751Z,102027.75
2023-04-08T17:44:36.875Z,102038.56
2023-04-08T17:47:05.880Z,102032.44
2023-04-08T17:49:34.557Z,102028.97
2023-04-08T17:52:02.195Z,102035.69
2023-04-08T17:54:31.324Z,102038.09
2023-04-08T17:56:59.101Z,102037.91
2023-04-08T17:59:26.709Z,102042.66
2023-04-08T18:01:54.630Z,102041.78
2023-04-08T18:04:23.857Z,102041.94
2023-04-08T18:06:52.565Z,102042.69
2023-04-08T18:09:20.147Z,102042.97
2023-04-08T18:11:47.831Z,102051.06
2023-04-08T18:14:16.480Z,102050.59
2023-04-08T18:16:44.175Z,102049.38
2023-04-08T18:19:13.627Z,102058.31
2023-04-08T18:21:42.695Z,102061.16
2023-04-08T18:24:10.334Z,102061.16
2023-04-08T18:26:37.918Z,102055.75
2023-04-08T18:29:06.678Z,102066.56
2023-04-08T18:31:34.362Z,102068.44
2023-04-08T18:34:02.057Z,102077.69
2023-04-08T18:36:29.838Z,102072.28
2023-04-08T18:38:58.929Z,102077.81
2023-04-08T18:41:27.833Z,102074.44
2023-04-08T18:43:55.915Z,102068.03
2023-04-08T18:46:24.467Z,102076.28
2023-04-08T18:48:52.248Z,102081.16
2023-04-08T18:51:19.956Z,102078.00
2023-04-08T18:53:47.910Z,102084.47
2023-04-08T18:56:18.405Z,102079.16
2023-04-08T18:58:46.937Z,102083.16
2023-04-08T19:01:16.122Z,102081.25
2023-04-08T19:03:44.228Z,102083.47
2023-04-08T19:06:13.986Z,102079.78
2023-04-08T19:08:42.628Z,102086.00
2023-04-08T19:11:10.337Z,102083.16
2023-04-08T19:13:39.851Z,102081.31
2023-04-08T19:16:08.284Z,102083.47
2023-04-08T19:18:36.036Z,102084.03
2023-04-08T19:21:07.337Z,102082.00
2023-04-08T19:23:34.982Z,102081.88
2023-04-08T19:26:06.013Z,102087.28
2023-04-08T19:28:33.758Z,102084.56
2023-04-08T19:31:03.007Z,102083.69
2023-04-08T19:33:31.339Z,102078.28
2023-04-08T19:35:58.977Z,102083.09
2023-04-08T19:38:26.861Z,102084.47
2023-04-08T19:40:54.432Z,102073.66
2023-04-08T19:43:22.079Z,102078.00
2023-04-08T19:45:54.004Z,102083.41
2023-04-08T19:48:22.968Z,102077.47
2023-04-08T19:50:52.083Z,102073.38
2023-04-08T19:53:20.049Z,102077.53
2023-04-08T19:55:47.886Z,102071.59
2023-04-08T19:58:15.923Z,102079.53
2023-04-08T20:00:43.551Z,102082.25
2023-04-08T20:03:15.355Z,102079.84
2023-04-08T20:05:46.631Z,102086.09
2023-04-08T20:08:15.779Z,102081.53
2023-04-08T20:10:43.472Z,102092.34
2023-04-08T20:13:11.060Z,102098.28
2023-04-08T20:15:39.559Z,102088.47
2023-04-08T20:18:07.808Z,102091.19
2023-04-08T20:20:35.713Z,102092.50
2023-04-08T20:23:04.785Z,102097.66
2023-04-08T20:25:40.113Z,102095.56
2023-04-08T20:28:08.276Z,102092.78
2023-04-08T20:30:36.177Z,102095.97
2023-04-08T20:33:05.200Z,102099.09
2023-04-08T20:35:33.226Z,102097.88
2023-04-08T20:38:05.764Z,102098.88
2023-04-08T20:40:36.648Z,102103.44
2023-04-08T20:43:04.928Z,102096.88
2023-04-08T20:45:32.956Z,102100.09
2023-04-08T20:48:01.617Z,102104.50
2023-04-08T20:50:30.261Z,102100.81
2023-04-08T20:52:58.401Z,102104.19
2023-04-08T20:55:27.863Z,102103.19
2023-04-08T20:57:57.242Z,102099.19
2023-04-08T21:00:25.394Z,102105.16
2023-04-08T21:02:53.527Z,102104.69
2023-04-08T21:05:21.996Z,102102.44
2023-04-08T21:07:49.932Z,102101.22
2023-04-08T21:10:18.452Z,102098.50
2023-04-08T21:12:46.485Z,102103.03
2023-04-08T21:15:15.723Z,102096.09
2023-04-08T21:17:44.319Z,102108.06
2023-04-08T21:20:13.358Z,102105.50
2023-04-08T21:22:41.299Z,102099.69
2023-04-08T21:25:09.411Z,102104.56
2023-04-08T21:27:37.624Z,102108.03
2023-04-08T21:30:07.656Z,102108.84
2023-04-08T21:32:36.704Z,102113.41
2023-04-08T21:35:04.906Z,102114.31
2023-04-08T21:37:33.713Z,102112.47
2023-04-08T21:40:01.511Z,102120.56
2023-04-08T21:42:29.151Z,102108.22
2023-04-08T21:44:57.067Z,102111.94
2023-04-08T21:47:24.967Z,102118.59
2023-04-08T21:49:55.727Z,102117.47
2023-04-08T21:52:23.489Z,102115.09
2023-04-08T21:54:51.666Z,102120.75
2023-04-08T21:57:20.046Z,102123.47
2023-04-08T21:59:47.813Z,102127.84
2023-04-08T22:02:15.883Z,102130.88
2023-04-08T22:04:44.568Z,102129.59
2023-04-08T22:07:13.757Z,102128.63
2023-04-08T22:09:41.954Z,102129.31
2023-04-08T22:12:10.655Z,102136.31
2023-04-08T22:14:39.073Z,102128.78
2023-04-08T22:17:07.116Z,102124.53
2023-04-08T22:19:34.903Z,102125.53
2023-04-08T22:22:02.658Z,102123.97
2023-04-08T22:24:31.750Z,102119.28
2023-04-08T22:26:59.491Z,102122.38
2023-04-08T22:29:27.425Z,102109.16
2023-04-08T22:31:55.299Z,102115.03
2023-04-08T22:34:23.142Z,102115.03
2023-04-08T22:36:51.009Z,102110.38
2023-04-08T22:39:18.658Z,102107.94
2023-04-08T22:41:47.812Z,102116.28
2023-04-08T22:44:15.695Z,102105.75
2023-04-08T22:46:43.470Z,102110.16
2023-04-08T22:49:11.198Z,102117.84
2023-04-08T22:51:39.282Z,102112.44
2023-04-08T22:54:07.352Z,102113.75
2023-04-08T22:56:35.680Z,102117.13
2023-04-08T22:59:04.907Z,102098.25
2023-04-08T23:01:32.926Z,102112.72
2023-04-08T23:04:01.590Z,102111.19
2023-04-08T23:06:29.551Z,102118.13
2023-04-08T23:08:57.415Z,102111.03
2023-04-08T23:11:25.933Z,102109.75
2023-04-08T23:13:54.082Z,102106.53
2023-04-08T23:16:23.306Z,102109.38
2023-04-08T23:18:52.034Z,102110.06
2023-04-08T23:21:23.452Z,102111.63
2023-04-08T23:23:53.589Z,102110.78
2023-04-08T23:26:22.128Z,102104.69
2023-04-08T23:28:50.897Z,102108.50
2023-04-08T23:31:19.189Z,102099.44
2023-04-08T23:33:48.455Z,102104.72
2023-04-08T23:36:16.370Z,102096.97
2023-04-08T23:38:53.492Z,102103.59
2023-04-08T23:41:23.109Z,102104.47
2023-04-08T23:43:52.641Z,102109.44
2023-04-08T23:46:20.493Z,102124.19
2023-04-08T23:48:50.308Z,102121.38
2023-04-08T23:51:18.549Z,102119.22
2023-04-08T23:53:47.776Z,102122.78
2023-04-08T23:56:15.798Z,102119.22
2023-04-08T23:58:46.334Z,102120.91
